LOWS

Salzburg Airport

Salzburg, Austria
TAF LOWS 202315Z 2100/2124 16006KT CAVOK TX27/2114Z TN11/2103Z BECMG 2108/2110 32007KT 9999 FEW070 BECMG 2117/2119 16006KT
Issued Valid From Valid To
Apr-20 @ 23:15 UTC
(5 hours ago)
Apr-21 @ 00:00 UTC
(4 hours ago)
Apr-22 @ 00:00 UTC
(in 20 hours)
Apr-21 @ 00:00 to Apr-21 @ 08:00
TAF LOWS 202315Z 2100/2124 16006KT CAVOK TX27/2114Z TN11/2103Z
Wind Visibility Clouds
160° at 6 knots 10,000+ meters
  • No significant clouds
Becoming Apr-21 @ 08:00 to Apr-21 @ 17:00
BECMG 2108/2110 32007KT 9999 FEW070
Wind Visibility Clouds
320° at 7 knots 10,000+ meters
  • Few at 7,000' AGL
Becoming Apr-21 @ 17:00 to Apr-22 @ 00:00
BECMG 2117/2119 16006KT
Wind Visibility Clouds
160° at 6 knots 10,000+ meters
  • Few at 7,000' AGL
TAF LOWS 202315Z 2100/2124 16006KT CAVOK TX27/2114Z TN11/2103Z BECMG 2108/2110 32007KT 9999 FEW070 BECMG 2117/2119 16006KT
Issued Apr-20 @ 23:15 UTC
(5 hours ago)
Valid From Apr-21 @ 00:00 UTC
(4 hours ago)
Valid To Apr-22 @ 00:00 UTC
(in 20 hours)
Apr-21 @ 00:00 - Apr-21 @ 08:00
Wind Visibility
160° at 6 knots 10,000+ meters
Clouds
  • No significant clouds
Becoming Apr-21 @ 08:00 - Apr-21 @ 17:00
Wind Visibility
320° at 7 knots 10,000+ meters
Clouds
  • Few at 7,000' AGL
Becoming Apr-21 @ 17:00 - Apr-22 @ 00:00
Wind Visibility
160° at 6 knots 10,000+ meters
Clouds
  • Few at 7,000' AGL